Time;durP1;ratioP1;P1;durP2;ratioP2;P2;SDS_P1;SDS_P2;PMS_P1;PMS_P2;Temp;Humidity;BMP_temperature;BMP_pressure;BME280_temperature;BME280_humidity;BME280_pressure;Samples;Min_cycle;Max_cycle;Signal;HPM_P1;HPM_P2
2021/10/10 00:01:22;;;;;;;7.70;6.60;;;13.00;99.90;;;;;;4909272;29;20967;-81
2021/10/10 00:03:50;;;;;;;8.83;6.60;;;12.90;99.90;;;;;;4902658;29;20489;-81
2021/10/10 00:06:18;;;;;;;9.80;7.03;;;13.00;99.90;;;;;;4910866;29;20473;-80
2021/10/10 00:08:46;;;;;;;9.33;6.90;;;13.00;99.90;;;;;;4910995;29;20472;-81
2021/10/10 00:11:15;;;;;;;12.47;6.90;;;13.00;99.90;;;;;;4911325;29;20460;-81
2021/10/10 00:13:43;;;;;;;7.90;6.77;;;13.00;99.90;;;;;;4903857;29;20459;-81
2021/10/10 00:16:11;;;;;;;14.70;8.17;;;12.90;99.90;;;;;;4916219;29;20459;-80
2021/10/10 00:18:41;;;;;;;8.37;7.00;;;12.90;99.90;;;;;;4913905;29;20458;-82
2021/10/10 00:21:09;;;;;;;11.33;7.43;;;12.90;99.90;;;;;;4913388;29;20458;-82
2021/10/10 00:23:37;;;;;;;9.33;6.93;;;12.80;99.90;;;;;;4912840;29;20447;-82
2021/10/10 00:26:05;;;;;;;12.50;7.20;;;12.80;99.90;;;;;;4913759;29;20477;-82
2021/10/10 00:28:34;;;;;;;11.97;7.60;;;12.70;99.90;;;;;;4913243;29;20451;-82
2021/10/10 00:31:02;;;;;;;10.53;7.23;;;12.70;99.90;;;;;;4910020;29;20454;-82
2021/10/10 00:33:30;;;;;;;7.90;6.23;;;12.70;99.90;;;;;;4899289;29;20531;-82
2021/10/10 00:36:00;;;;;;;16.30;8.37;;;12.70;99.90;;;;;;4913141;29;20458;-82
2021/10/10 00:38:28;;;;;;;8.23;6.83;;;12.60;99.90;;;;;;4912193;29;20869;-82
2021/10/10 00:40:56;;;;;;;9.90;6.63;;;12.50;99.90;;;;;;4912256;29;21005;-83
2021/10/10 00:43:24;;;;;;;9.93;6.83;;;12.50;99.90;;;;;;4911034;29;20466;-84
2021/10/10 00:45:53;;;;;;;8.73;6.67;;;12.50;99.90;;;;;;4910377;29;20862;-83
2021/10/10 00:48:21;;;;;;;9.30;6.87;;;12.50;99.90;;;;;;4908809;29;20462;-83
2021/10/10 00:50:49;;;;;;;10.73;7.77;;;12.50;99.90;;;;;;4912209;29;21136;-83
2021/10/10 00:53:20;;;;;;;7.90;6.50;;;12.50;99.90;;;;;;4909366;29;20474;-83
2021/10/10 00:55:51;;;;;;;7.83;7.03;;;12.40;99.90;;;;;;4910742;29;20991;-83
2021/10/10 00:58:22;;;;;;;7.50;6.00;;;12.40;99.90;;;;;;4910793;29;20469;-83
2021/10/10 01:00:52;;;;;;;7.03;5.60;;;12.40;99.90;;;;;;4911643;29;20462;-84
2021/10/10 01:03:21;;;;;;;7.80;6.43;;;12.40;99.90;;;;;;4907777;29;20458;-83
2021/10/10 01:05:49;;;;;;;8.30;5.97;;;12.40;99.90;;;;;;4911832;29;20485;-83
2021/10/10 01:08:20;;;;;;;12.10;6.27;;;12.40;99.90;;;;;;4911848;29;20560;-81
2021/10/10 01:10:50;;;;;;;8.50;6.50;;;12.40;99.90;;;;;;4914554;29;21101;-82
2021/10/10 01:13:21;;;;;;;14.03;6.83;;;12.20;99.90;;;;;;4913679;29;20465;-82
2021/10/10 01:15:51;;;;;;;9.03;6.80;;;12.20;99.90;;;;;;4910754;29;20911;-82
2021/10/10 01:18:23;;;;;;;7.83;6.17;;;12.20;99.90;;;;;;4908255;29;20469;-82
2021/10/10 01:20:55;;;;;;;7.97;5.97;;;12.20;99.90;;;;;;4923940;29;20544;-82
2021/10/10 01:23:24;;;;;;;10.13;6.53;;;12.20;99.90;;;;;;4904539;29;20461;-82
2021/10/10 01:25:53;;;;;;;8.40;6.77;;;12.20;99.90;;;;;;4912856;29;20489;-82
2021/10/10 01:28:21;;;;;;;15.83;7.50;;;12.20;99.90;;;;;;4912625;29;20467;-79
2021/10/10 01:30:50;;;;;;;9.00;7.40;;;12.10;99.90;;;;;;4910192;29;20490;-79
2021/10/10 01:33:18;;;;;;;7.10;5.97;;;12.10;99.90;;;;;;4907621;29;20458;-79
2021/10/10 01:35:46;;;;;;;8.93;6.73;;;12.10;99.90;;;;;;4912066;29;21028;-79
2021/10/10 01:38:19;;;;;;;11.50;6.87;;;12.20;99.90;;;;;;4907990;29;20453;-81
2021/10/10 01:40:48;;;;;;;9.20;6.33;;;12.10;99.90;;;;;;4909882;29;20558;-81
2021/10/10 01:43:17;;;;;;;8.57;6.87;;;12.00;99.90;;;;;;4912458;29;20462;-81
2021/10/10 01:45:45;;;;;;;11.17;6.40;;;12.00;99.90;;;;;;4912614;29;20482;-80
2021/10/10 01:48:14;;;;;;;9.43;6.43;;;12.10;99.90;;;;;;4904074;29;20450;-83
2021/10/10 01:50:42;;;;;;;8.83;6.70;;;12.00;99.90;;;;;;4909055;29;20480;-82
2021/10/10 01:53:10;;;;;;;7.90;6.67;;;12.00;99.90;;;;;;4909148;29;20571;-82
2021/10/10 01:55:40;;;;;;;8.87;6.07;;;12.00;99.90;;;;;;4906834;29;20561;-83
2021/10/10 01:58:08;;;;;;;8.57;6.53;;;12.00;99.90;;;;;;4912480;29;20478;-83
2021/10/10 02:00:36;;;;;;;6.20;5.60;;;11.90;99.90;;;;;;4912763;29;20557;-83
2021/10/10 02:03:05;;;;;;;8.10;6.30;;;11.90;99.90;;;;;;4905455;29;20542;-82
2021/10/10 02:05:34;;;;;;;9.40;6.40;;;11.90;99.90;;;;;;4907721;29;20516;-83
2021/10/10 02:08:02;;;;;;;7.30;5.27;;;11.80;99.90;;;;;;4914473;29;20456;-82
2021/10/10 02:10:30;;;;;;;8.63;6.17;;;11.80;99.90;;;;;;4908228;29;20671;-80
2021/10/10 02:13:00;;;;;;;7.83;5.80;;;11.80;99.90;;;;;;4915816;29;20941;-80
2021/10/10 02:15:28;;;;;;;12.30;6.93;;;11.80;99.90;;;;;;4915306;29;20482;-79
2021/10/10 02:17:58;;;;;;;8.37;6.30;;;11.70;99.90;;;;;;4916135;29;20465;-80
2021/10/10 02:20:27;;;;;;;6.00;5.13;;;11.70;99.90;;;;;;4913212;29;20865;-82
2021/10/10 02:22:55;;;;;;;6.60;5.43;;;11.70;99.90;;;;;;4915155;29;20458;-81
2021/10/10 02:25:23;;;;;;;7.43;5.77;;;11.70;99.90;;;;;;4914420;29;20856;-82
2021/10/10 02:27:51;;;;;;;9.17;5.43;;;11.50;99.90;;;;;;4915248;29;20580;-82
2021/10/10 02:30:21;;;;;;;6.27;4.67;;;11.50;99.90;;;;;;4911298;29;20492;-82
2021/10/10 02:32:49;;;;;;;5.20;4.70;;;11.50;99.90;;;;;;4911989;29;20927;-81
2021/10/10 02:35:18;;;;;;;10.67;5.57;;;11.50;99.90;;;;;;4913566;29;20498;-82
2021/10/10 02:37:46;;;;;;;6.83;5.90;;;11.60;99.90;;;;;;4923300;29;20457;-81
2021/10/10 02:40:15;;;;;;;7.07;5.83;;;11.50;99.90;;;;;;4913043;29;20454;-82
2021/10/10 02:42:45;;;;;;;7.17;6.53;;;11.50;99.90;;;;;;4915038;29;20465;-81
2021/10/10 02:45:14;;;;;;;8.40;5.50;;;11.50;99.90;;;;;;4911158;29;20470;-81
2021/10/10 02:47:43;;;;;;;6.90;5.63;;;11.40;99.90;;;;;;4904805;29;20481;-81
2021/10/10 02:50:11;;;;;;;8.47;6.30;;;11.40;99.90;;;;;;4914565;29;20497;-80
2021/10/10 02:52:39;;;;;;;7.70;4.93;;;11.30;99.90;;;;;;4916076;29;21017;-81
2021/10/10 02:55:09;;;;;;;7.67;5.77;;;11.30;99.90;;;;;;4925881;29;20489;-81
2021/10/10 02:57:37;;;;;;;11.80;5.30;;;11.30;99.90;;;;;;4912177;29;21196;-81
2021/10/10 03:00:06;;;;;;;6.63;6.00;;;11.20;99.90;;;;;;4911858;29;20469;-80
2021/10/10 03:02:35;;;;;;;8.10;6.30;;;11.30;99.90;;;;;;4914069;29;20462;-81
2021/10/10 03:05:05;;;;;;;7.67;5.37;;;11.30;99.90;;;;;;4912714;29;20462;-81
2021/10/10 03:07:33;;;;;;;10.57;5.83;;;11.30;99.90;;;;;;4904672;29;20861;-81
2021/10/10 03:10:01;;;;;;;5.60;5.10;;;11.30;99.90;;;;;;4912919;29;20454;-81
2021/10/10 03:12:29;;;;;;;7.97;6.60;;;11.20;99.90;;;;;;4915030;29;20879;-81
2021/10/10 03:14:58;;;;;;;8.97;6.40;;;11.20;99.90;;;;;;4913976;29;20478;-81
2021/10/10 03:17:26;;;;;;;8.87;6.13;;;11.20;99.90;;;;;;4914485;29;20881;-81
2021/10/10 03:19:54;;;;;;;8.50;5.47;;;11.20;99.90;;;;;;4914587;29;20837;-80
2021/10/10 03:22:23;;;;;;;8.87;6.20;;;11.20;99.90;;;;;;4911936;29;20450;-80
2021/10/10 03:24:52;;;;;;;7.47;6.30;;;11.20;99.90;;;;;;4910000;29;20535;-80
2021/10/10 03:27:25;;;;;;;7.87;5.77;;;11.10;99.90;;;;;;4918374;29;20521;-80
2021/10/10 03:29:54;;;;;;;8.27;5.23;;;11.10;99.90;;;;;;4911425;29;21029;-80
2021/10/10 03:32:22;;;;;;;7.27;5.97;;;11.10;99.90;;;;;;4912817;29;20482;-80
2021/10/10 03:34:50;;;;;;;6.80;4.03;;;11.10;99.90;;;;;;4920005;29;20545;-80
2021/10/10 03:37:19;;;;;;;7.43;5.80;;;11.10;99.90;;;;;;4911587;29;20460;-81
2021/10/10 03:39:48;;;;;;;6.10;4.63;;;11.10;99.90;;;;;;4923741;29;20476;-80
2021/10/10 03:42:17;;;;;;;7.10;5.20;;;11.00;99.90;;;;;;4914376;29;20479;-81
2021/10/10 03:44:46;;;;;;;5.83;5.27;;;11.00;99.90;;;;;;4913519;29;20490;-80
2021/10/10 03:47:20;;;;;;;11.87;5.70;;;11.00;99.90;;;;;;4907649;29;20992;-80
2021/10/10 03:49:48;;;;;;;10.17;6.30;;;11.00;99.90;;;;;;4913764;29;20461;-80
2021/10/10 03:52:16;;;;;;;5.97;4.93;;;11.00;99.90;;;;;;4913702;29;20550;-80
2021/10/10 03:55:19;;;;;;;7.30;5.53;;;11.00;99.90;;;;;;4912346;29;20482;-80
2021/10/10 03:57:49;;;;;;;9.90;5.80;;;10.90;99.90;;;;;;4904966;29;20819;-80
2021/10/10 04:00:18;;;;;;;8.87;5.60;;;11.00;99.90;;;;;;4912601;29;20983;-79
2021/10/10 04:02:46;;;;;;;5.07;4.50;;;10.90;99.90;;;;;;4914633;29;20471;-80
2021/10/10 04:05:20;;;;;;;6.03;5.00;;;10.90;99.90;;;;;;4913084;29;20530;-81
2021/10/10 04:07:49;;;;;;;8.60;5.77;;;10.80;99.90;;;;;;4908661;29;20526;-81
2021/10/10 04:10:18;;;;;;;8.47;5.57;;;10.80;99.90;;;;;;4913400;29;20461;-81
2021/10/10 04:12:46;;;;;;;7.70;5.27;;;10.90;99.90;;;;;;4909316;29;20482;-81
2021/10/10 04:15:16;;;;;;;6.60;5.53;;;10.90;99.90;;;;;;4912892;29;20485;-81
2021/10/10 04:17:45;;;;;;;7.70;5.77;;;10.80;99.90;;;;;;4912274;29;20462;-81
2021/10/10 04:20:15;;;;;;;6.73;6.03;;;10.80;99.70;;;;;;4914824;29;20945;-81
2021/10/10 04:22:44;;;;;;;7.67;5.70;;;10.80;98.10;;;;;;4913048;29;20470;-81
2021/10/10 04:25:14;;;;;;;5.57;5.00;;;10.70;99.10;;;;;;4913464;29;20484;-81
2021/10/10 04:27:42;;;;;;;8.87;6.63;;;10.70;98.60;;;;;;4911447;29;20472;-79
2021/10/10 04:30:13;;;;;;;28.53;13.20;;;10.70;99.10;;;;;;4906742;29;20456;-79
2021/10/10 04:32:43;;;;;;;16.93;9.83;;;10.60;96.80;;;;;;4911805;29;20481;-79
2021/10/10 04:35:12;;;;;;;12.70;7.37;;;10.70;96.50;;;;;;4910574;29;20920;-79
2021/10/10 04:37:41;;;;;;;7.97;5.70;;;10.60;96.80;;;;;;4897197;29;20463;-78
2021/10/10 04:40:10;;;;;;;5.40;4.90;;;10.60;96.80;;;;;;4907545;29;20501;-79
2021/10/10 04:42:38;;;;;;;7.90;5.90;;;10.60;96.70;;;;;;4915682;29;20449;-79
2021/10/10 04:45:08;;;;;;;8.83;5.27;;;10.60;96.70;;;;;;4911131;29;20486;-81
2021/10/10 04:47:36;;;;;;;5.93;5.23;;;10.60;96.90;;;;;;4915741;29;20454;-79
2021/10/10 04:50:06;;;;;;;5.53;4.90;;;10.60;97.40;;;;;;4926477;29;20492;-79
2021/10/10 04:52:35;;;;;;;6.80;4.87;;;10.60;99.90;;;;;;4917996;29;20479;-79
2021/10/10 04:55:04;;;;;;;7.40;5.40;;;10.50;97.70;;;;;;4915703;29;20487;-80
2021/10/10 04:57:32;;;;;;;6.50;4.97;;;10.50;96.50;;;;;;4917009;29;20470;-80
2021/10/10 05:00:00;;;;;;;6.80;5.20;;;10.50;96.90;;;;;;4910694;29;20459;-80
2021/10/10 05:02:28;;;;;;;8.50;6.50;;;10.50;97.20;;;;;;4916887;29;20460;-79
2021/10/10 05:04:57;;;;;;;6.40;4.57;;;10.40;97.90;;;;;;4916614;29;21063;-81
2021/10/10 05:07:26;;;;;;;10.30;6.60;;;10.40;97.50;;;;;;4912757;29;20474;-80
2021/10/10 05:09:54;;;;;;;8.13;4.87;;;10.40;97.50;;;;;;4913144;29;20464;-80
2021/10/10 05:12:22;;;;;;;9.27;6.80;;;10.40;97.10;;;;;;4912321;29;20511;-81
2021/10/10 05:14:51;;;;;;;7.83;5.40;;;10.40;96.90;;;;;;4905722;29;20484;-82
2021/10/10 05:17:19;;;;;;;7.27;4.73;;;10.40;97.50;;;;;;4912857;29;20468;-81
2021/10/10 05:19:47;;;;;;;7.90;5.40;;;10.40;97.30;;;;;;4911045;29;20868;-82
2021/10/10 05:22:15;;;;;;;6.30;5.53;;;10.30;96.90;;;;;;4925198;29;20541;-82
2021/10/10 05:24:44;;;;;;;20.60;12.30;;;10.30;97.80;;;;;;4910803;29;20485;-82
2021/10/10 05:27:12;;;;;;;10.97;6.20;;;10.30;97.30;;;;;;4912575;29;21009;-82
2021/10/10 05:29:42;;;;;;;6.77;5.40;;;10.30;97.10;;;;;;4911931;29;20982;-82
2021/10/10 05:32:10;;;;;;;7.70;5.23;;;10.30;97.10;;;;;;4912704;29;20554;-83
2021/10/10 05:34:38;;;;;;;7.30;5.37;;;10.30;97.40;;;;;;4912968;29;20489;-82
2021/10/10 05:37:07;;;;;;;6.43;5.83;;;10.30;96.70;;;;;;4914501;29;20459;-83
2021/10/10 05:39:35;;;;;;;5.63;5.07;;;10.30;98.60;;;;;;4913804;29;22099;-82
2021/10/10 05:42:04;;;;;;;7.10;5.10;;;10.20;97.40;;;;;;4914886;29;20450;-82
2021/10/10 05:44:33;;;;;;;7.20;5.50;;;10.20;97.00;;;;;;4907198;29;20493;-81
2021/10/10 05:47:01;;;;;;;6.87;5.30;;;10.20;97.70;;;;;;4912401;29;20521;-81
2021/10/10 05:49:29;;;;;;;7.07;5.47;;;10.20;96.80;;;;;;4909739;29;20495;-82
2021/10/10 05:51:59;;;;;;;8.53;7.03;;;10.20;97.30;;;;;;4913798;29;20550;-82
2021/10/10 05:54:29;;;;;;;7.10;6.40;;;10.20;96.80;;;;;;4912439;29;20515;-82
2021/10/10 05:56:59;;;;;;;7.60;4.80;;;10.20;96.80;;;;;;4914495;29;20509;-82
2021/10/10 05:59:32;;;;;;;7.17;5.50;;;10.20;96.90;;;;;;4916679;29;20465;-82
2021/10/10 06:02:01;;;;;;;10.50;6.37;;;10.10;96.60;;;;;;4915214;29;20461;-82
2021/10/10 06:04:29;;;;;;;8.87;6.97;;;10.20;96.70;;;;;;4912728;29;20477;-82
2021/10/10 06:06:57;;;;;;;7.40;6.40;;;10.10;97.10;;;;;;4913192;29;20567;-81
2021/10/10 06:09:25;;;;;;;10.80;6.13;;;10.10;97.20;;;;;;4909990;29;20472;-83
2021/10/10 06:11:53;;;;;;;8.17;5.93;;;10.10;97.20;;;;;;4915301;29;20823;-82
2021/10/10 06:14:21;;;;;;;6.30;5.23;;;10.10;97.40;;;;;;4910057;29;20483;-82
2021/10/10 06:16:51;;;;;;;9.80;5.97;;;10.20;97.50;;;;;;4913782;29;21201;-82
2021/10/10 06:19:19;;;;;;;6.37;5.70;;;10.20;98.00;;;;;;4913726;29;20460;-81
2021/10/10 06:21:47;;;;;;;6.50;5.60;;;10.20;97.40;;;;;;4915877;29;20473;-82
2021/10/10 06:24:15;;;;;;;6.03;5.27;;;10.10;97.50;;;;;;4913479;29;20486;-82
2021/10/10 06:26:44;;;;;;;6.37;5.20;;;10.10;97.50;;;;;;4910672;29;20521;-75
2021/10/10 06:29:13;;;;;;;7.47;5.87;;;10.00;96.50;;;;;;4911970;29;21073;-76
2021/10/10 06:31:42;;;;;;;6.68;5.85;;;9.80;98.20;;;;;;4912626;29;20962;-78
2021/10/10 06:34:12;;;;;;;8.10;5.93;;;9.60;99.90;;;;;;4912942;29;20225;-75
2021/10/10 06:36:44;;;;;;;6.20;5.60;;;9.50;99.90;;;;;;4911530;29;20521;-79
2021/10/10 06:39:12;;;;;;;7.07;5.03;;;9.70;99.90;;;;;;4907754;29;20460;-78
2021/10/10 06:41:40;;;;;;;6.77;4.83;;;10.00;99.90;;;;;;4912831;29;20539;-77
2021/10/10 06:44:09;;;;;;;6.87;5.80;;;10.10;99.90;;;;;;4912346;29;20598;-77
2021/10/10 06:46:37;;;;;;;8.93;5.90;;;10.20;99.90;;;;;;4913083;29;20452;-80
2021/10/10 06:49:05;;;;;;;7.23;5.97;;;10.30;99.90;;;;;;4914198;29;20454;-79
2021/10/10 06:51:34;;;;;;;7.70;6.20;;;10.40;99.90;;;;;;4915986;29;20526;-78
2021/10/10 06:54:03;;;;;;;8.00;7.20;;;10.40;99.90;;;;;;4918020;29;20478;-79
2021/10/10 06:56:31;;;;;;;9.65;7.30;;;10.50;99.90;;;;;;4910619;29;20443;-80
2021/10/10 06:59:00;;;;;;;9.30;6.50;;;10.50;99.90;;;;;;4909164;29;20198;-78
2021/10/10 07:01:28;;;;;;;7.67;6.30;;;10.60;99.90;;;;;;4914411;29;20518;-79
2021/10/10 07:03:57;;;;;;;6.70;5.70;;;10.70;99.90;;;;;;4913853;29;20474;-81
2021/10/10 07:06:25;;;;;;;6.90;6.20;;;10.70;99.90;;;;;;4911121;29;20450;-79
2021/10/10 07:08:55;;;;;;;8.97;6.53;;;10.80;99.90;;;;;;4914935;29;20462;-78
2021/10/10 07:11:23;;;;;;;9.00;5.40;;;10.80;99.90;;;;;;4911236;29;20985;-80
2021/10/10 07:13:51;;;;;;;7.40;5.27;;;10.80;99.90;;;;;;4912780;29;20550;-78
2021/10/10 07:16:25;;;;;;;8.30;6.27;;;10.80;99.90;;;;;;4911287;29;20544;-78
2021/10/10 07:18:55;;;;;;;7.33;5.60;;;10.90;99.90;;;;;;4912997;29;20469;-77
2021/10/10 07:21:28;;;;;;;11.73;6.37;;;10.90;99.90;;;;;;4913588;29;20445;-78
2021/10/10 07:26:49;;;;;;;8.50;5.97;;;11.00;99.90;;;;;;4893156;29;20478;-79
2021/10/10 07:29:17;;;;;;;9.00;6.90;;;11.10;99.90;;;;;;4913489;29;20466;-79
2021/10/10 07:31:45;;;;;;;6.93;5.87;;;11.20;99.90;;;;;;4911502;29;20467;-77
2021/10/10 07:34:13;;;;;;;6.93;5.60;;;11.20;99.90;;;;;;4913759;29;20516;-78
2021/10/10 07:36:41;;;;;;;7.20;5.60;;;11.10;99.90;;;;;;4906339;29;20502;-77
2021/10/10 07:39:11;;;;;;;6.77;6.07;;;11.40;99.90;;;;;;4911005;29;20942;-78
2021/10/10 07:41:40;;;;;;;9.87;6.33;;;11.30;99.90;;;;;;4914040;29;20452;-80
2021/10/10 07:44:12;;;;;;;7.90;6.50;;;11.70;99.90;;;;;;4913428;29;20471;-79
2021/10/10 07:46:42;;;;;;;10.40;7.40;;;12.00;99.90;;;;;;4909520;29;20462;-79
2021/10/10 07:49:11;;;;;;;7.97;6.67;;;12.30;99.90;;;;;;4904726;29;20477;-81
2021/10/10 07:51:39;;;;;;;11.10;6.70;;;12.50;99.90;;;;;;4909983;29;20527;-79
2021/10/10 07:54:07;;;;;;;14.57;7.43;;;12.80;99.90;;;;;;4908558;29;20526;-79
2021/10/10 07:56:37;;;;;;;10.30;6.90;;;13.10;99.90;;;;;;4906457;29;21120;-79
2021/10/10 07:59:05;;;;;;;10.70;6.63;;;13.30;99.90;;;;;;4909007;29;20467;-79
2021/10/10 08:01:33;;;;;;;10.53;7.10;;;13.60;99.90;;;;;;4910818;29;20549;-81
2021/10/10 08:04:02;;;;;;;9.57;5.93;;;13.90;99.90;;;;;;4914366;29;20491;-81
2021/10/10 08:06:30;;;;;;;11.37;7.60;;;14.20;99.90;;;;;;4913292;29;20511;-79
2021/10/10 08:08:58;;;;;;;8.10;6.63;;;14.40;99.90;;;;;;4914672;29;20463;-79
2021/10/10 08:11:27;;;;;;;11.03;7.10;;;14.70;99.90;;;;;;4911384;29;20459;-78
2021/10/10 08:13:56;;;;;;;7.60;6.70;;;14.90;99.90;;;;;;4914420;29;20486;-78
2021/10/10 08:16:24;;;;;;;6.90;5.83;;;15.30;99.90;;;;;;4914090;29;20453;-79
2021/10/10 08:18:52;;;;;;;7.57;6.30;;;15.40;99.90;;;;;;4914400;29;20454;-80
2021/10/10 08:21:21;;;;;;;13.63;7.30;;;15.70;99.90;;;;;;4914198;29;20454;-79
2021/10/10 08:23:49;;;;;;;11.90;7.47;;;15.90;99.90;;;;;;4912086;29;20474;-82
2021/10/10 08:26:17;;;;;;;8.27;6.63;;;16.10;99.90;;;;;;4911116;29;20463;-79
2021/10/10 08:28:46;;;;;;;10.43;7.43;;;16.30;99.90;;;;;;4913841;29;20459;-79
2021/10/10 08:31:15;;;;;;;9.43;7.30;;;16.50;99.90;;;;;;4914545;29;20451;-79
2021/10/10 08:33:43;;;;;;;7.40;6.23;;;16.80;99.90;;;;;;4912169;29;20477;-80
2021/10/10 08:36:12;;;;;;;7.27;5.80;;;17.00;99.90;;;;;;4913011;29;20814;-79
2021/10/10 08:38:41;;;;;;;9.07;6.47;;;17.20;99.90;;;;;;4919273;29;20462;-78
2021/10/10 08:41:11;;;;;;;8.67;7.07;;;17.40;99.90;;;;;;4914643;29;20205;-79
2021/10/10 08:43:41;;;;;;;8.97;5.50;;;17.60;99.90;;;;;;4910491;29;20456;-80
2021/10/10 08:46:12;;;;;;;9.83;6.90;;;17.80;99.90;;;;;;4913996;29;20445;-79
2021/10/10 08:48:41;;;;;;;8.33;5.53;;;18.00;99.90;;;;;;4912644;29;20456;-81
2021/10/10 08:51:10;;;;;;;9.70;6.20;;;18.00;99.90;;;;;;4912701;29;20868;-78
2021/10/10 08:53:59;;;;;;;10.73;7.03;;;18.10;99.90;;;;;;4910864;29;20485;-79
2021/10/10 08:56:27;;;;;;;11.20;6.60;;;18.30;99.90;;;;;;4917014;29;20464;-79
2021/10/10 08:58:55;;;;;;;9.23;6.23;;;18.20;99.90;;;;;;4909987;29;20522;-80
2021/10/10 09:01:29;;;;;;;8.83;6.00;;;18.40;99.90;;;;;;4913762;29;20458;-79
2021/10/10 09:03:59;;;;;;;8.63;5.77;;;18.70;99.90;;;;;;4913372;29;21250;-80
2021/10/10 09:06:27;;;;;;;9.40;6.17;;;19.00;99.90;;;;;;4919063;29;20476;-80
2021/10/10 09:08:55;;;;;;;9.30;6.07;;;19.20;99.90;;;;;;4931137;29;20856;-79
2021/10/10 09:11:24;;;;;;;12.97;5.73;;;19.40;99.90;;;;;;4912699;29;20453;-79
2021/10/10 09:14:02;;;;;;;8.37;6.77;;;19.60;99.90;;;;;;4912376;29;20494;-80
2021/10/10 09:16:36;;;;;;;7.13;6.47;;;19.80;99.90;;;;;;4917569;29;20507;-80
2021/10/10 09:19:29;;;;;;;7.67;5.77;;;19.80;99.90;;;;;;4912913;29;21227;-79
2021/10/10 09:22:01;;;;;;;7.37;5.93;;;20.00;99.90;;;;;;4914718;29;20469;-80
2021/10/10 09:24:29;;;;;;;6.60;5.87;;;20.10;99.90;;;;;;4915549;29;21009;-82
2021/10/10 09:26:57;;;;;;;9.63;6.07;;;20.10;99.90;;;;;;4907173;29;20449;-80
2021/10/10 09:29:33;;;;;;;7.60;4.90;;;20.30;99.90;;;;;;4912696;29;20457;-79
2021/10/10 09:32:08;;;;;;;9.67;6.03;;;20.60;99.90;;;;;;4915866;29;20461;-82
2021/10/10 09:34:38;;;;;;;6.50;5.40;;;20.60;99.90;;;;;;4880573;29;1148655;-82
2021/10/10 09:37:09;;;;;;;5.03;4.53;;;20.80;99.90;;;;;;4920503;29;20463;-83
2021/10/10 09:39:40;;;;;;;9.53;5.50;;;20.90;99.90;;;;;;4919570;29;20454;-82
2021/10/10 09:42:31;;;;;;;8.30;6.20;;;21.00;99.90;;;;;;4910489;29;20477;-80
2021/10/10 09:45:14;;;;;;;7.30;5.60;;;21.10;99.90;;;;;;4915181;29;20486;-80
2021/10/10 09:47:55;;;;;;;8.37;4.93;;;21.10;99.90;;;;;;4913743;29;20454;-81
2021/10/10 09:50:26;;;;;;;8.23;6.23;;;21.20;99.90;;;;;;4911601;29;20989;-85
2021/10/10 09:53:02;;;;;;;7.10;5.27;;;21.30;99.90;;;;;;4917398;29;20569;-82
2021/10/10 09:55:32;;;;;;;8.00;5.57;;;21.30;99.90;;;;;;4915805;29;20525;-82
2021/10/10 09:58:01;;;;;;;7.47;5.47;;;21.40;99.90;;;;;;4919517;29;20458;-82
2021/10/10 10:00:32;;;;;;;8.87;5.60;;;21.50;99.90;;;;;;4918148;29;21031;-83
2021/10/10 10:03:07;;;;;;;6.60;4.80;;;21.70;99.90;;;;;;4915571;29;20460;-81
2021/10/10 10:05:37;;;;;;;10.80;7.60;;;21.80;99.90;;;;;;4918414;29;20551;-82
2021/10/10 10:08:06;;;;;;;9.20;6.20;;;21.90;99.90;;;;;;4916705;29;20461;-80
2021/10/10 10:10:35;;;;;;;8.50;5.10;;;21.90;99.90;;;;;;4914259;29;20474;-82
2021/10/10 10:13:04;;;;;;;6.53;5.03;;;22.00;99.90;;;;;;4916478;29;20462;-79
2021/10/10 10:15:34;;;;;;;8.80;6.20;;;22.20;99.90;;;;;;4920880;29;20477;-79
2021/10/10 10:18:03;;;;;;;9.10;5.83;;;22.30;99.90;;;;;;4914317;29;20233;-79
2021/10/10 10:20:32;;;;;;;7.20;5.70;;;22.10;99.90;;;;;;4910003;29;20557;-80
2021/10/10 10:23:01;;;;;;;5.00;4.50;;;21.80;99.90;;;;;;4913234;29;20462;-80
2021/10/10 10:25:29;;;;;;;7.20;6.03;;;21.40;99.90;;;;;;4913141;29;20478;-78
2021/10/10 10:27:58;;;;;;;6.93;4.80;;;21.10;99.90;;;;;;4915464;29;20470;-80
2021/10/10 10:30:27;;;;;;;5.40;4.90;;;20.90;99.90;;;;;;4911319;29;20828;-80
2021/10/10 10:32:56;;;;;;;9.17;5.30;;;20.80;99.90;;;;;;4913565;29;20994;-82
2021/10/10 10:35:24;;;;;;;9.53;5.27;;;20.80;99.90;;;;;;4914756;29;21155;-80
2021/10/10 10:37:57;;;;;;;6.03;4.40;;;20.70;99.90;;;;;;4914002;29;20524;-78
2021/10/10 10:40:34;;;;;;;5.27;4.40;;;20.50;98.20;;;;;;4911361;29;20461;-77
2021/10/10 10:43:04;;;;;;;4.33;3.70;;;20.50;97.60;;;;;;4910855;29;20516;-77
2021/10/10 10:45:35;;;;;;;6.83;4.53;;;20.40;98.50;;;;;;4914291;29;20480;-76
2021/10/10 10:48:05;;;;;;;6.87;4.77;;;20.30;94.90;;;;;;4912430;29;20471;-78
2021/10/10 10:50:37;;;;;;;6.03;4.77;;;20.20;95.90;;;;;;4912212;29;20457;-76
2021/10/10 10:53:07;;;;;;;6.00;4.83;;;20.00;92.70;;;;;;4910693;29;20934;-77
2021/10/10 10:55:39;;;;;;;9.45;5.40;;;19.70;91.20;;;;;;4910828;29;20574;-78
2021/10/10 10:58:11;;;;;;;6.30;5.20;;;19.70;91.70;;;;;;4909120;29;20709;-78
2021/10/10 11:00:41;;;;;;;7.10;5.03;;;19.70;91.30;;;;;;4907826;29;20472;-78
2021/10/10 11:03:16;;;;;;;9.77;4.83;;;20.00;93.70;;;;;;4913088;29;20550;-78
2021/10/10 11:05:49;;;;;;;7.97;5.43;;;20.20;94.00;;;;;;4912834;29;20472;-78
2021/10/10 11:08:38;;;;;;;7.13;5.07;;;20.30;94.60;;;;;;4911694;29;20456;-79
2021/10/10 11:11:19;;;;;;;5.83;4.77;;;20.20;93.70;;;;;;4917597;29;20460;-78
2021/10/10 11:13:50;;;;;;;6.97;4.70;;;20.30;94.20;;;;;;4917618;29;20485;-78
2021/10/10 11:16:20;;;;;;;8.10;4.83;;;20.30;95.50;;;;;;4915083;29;20564;-78
2021/10/10 11:18:51;;;;;;;7.73;4.90;;;20.30;96.10;;;;;;4917523;29;20453;-77
2021/10/10 11:21:21;;;;;;;6.40;4.53;;;20.30;96.20;;;;;;4920691;29;20483;-79
2021/10/10 11:23:52;;;;;;;5.28;4.78;;;20.30;95.30;;;;;;4916175;29;21064;-78
2021/10/10 11:26:23;;;;;;;5.00;4.20;;;20.30;97.20;;;;;;4914724;29;20244;-78
2021/10/10 11:28:53;;;;;;;9.30;5.50;;;20.30;95.00;;;;;;4917189;29;20528;-79
2021/10/10 11:31:23;;;;;;;7.60;5.67;;;20.20;93.60;;;;;;4914652;29;20825;-77
2021/10/10 11:33:56;;;;;;;8.00;4.90;;;20.10;92.50;;;;;;4915423;29;21340;-79
2021/10/10 11:36:33;;;;;;;5.93;5.05;;;20.00;92.10;;;;;;4915053;29;20451;-77
2021/10/10 11:39:04;;;;;;;7.00;5.27;;;20.10;92.10;;;;;;4915155;29;20217;-81
2021/10/10 11:41:38;;;;;;;6.20;4.57;;;19.90;89.00;;;;;;4916436;29;20473;-81
2021/10/10 11:44:08;;;;;;;6.30;4.70;;;20.00;91.90;;;;;;4914745;29;20476;-81
2021/10/10 11:46:46;;;;;;;6.93;4.77;;;19.90;92.00;;;;;;4918302;29;20528;-80
2021/10/10 11:49:32;;;;;;;6.97;4.77;;;19.90;91.50;;;;;;4917620;29;20455;-79
2021/10/10 11:52:16;;;;;;;5.43;4.50;;;19.80;87.20;;;;;;4917265;29;20460;-78
2021/10/10 11:54:46;;;;;;;4.90;4.40;;;19.80;88.00;;;;;;4913998;29;20470;-78
2021/10/10 11:57:16;;;;;;;6.03;4.60;;;19.90;90.20;;;;;;4932459;29;20461;-79
2021/10/10 11:59:52;;;;;;;8.40;4.50;;;19.90;91.20;;;;;;4915017;29;20516;-78
2021/10/10 12:02:24;;;;;;;5.53;3.77;;;20.00;90.40;;;;;;4918490;29;20454;-81
2021/10/10 12:05:03;;;;;;;6.17;4.40;;;20.00;93.20;;;;;;4914118;29;20992;-79
2021/10/10 12:07:32;;;;;;;6.20;5.17;;;20.10;91.80;;;;;;4914468;29;20475;-80
2021/10/10 12:10:01;;;;;;;4.93;3.70;;;19.90;87.40;;;;;;4912249;29;20458;-81
2021/10/10 12:12:31;;;;;;;4.90;4.40;;;19.90;89.30;;;;;;4906340;29;20458;-79
2021/10/10 12:15:00;;;;;;;6.43;4.13;;;20.00;91.10;;;;;;4904447;29;20486;-78
2021/10/10 12:17:33;;;;;;;7.80;4.87;;;19.80;85.20;;;;;;4902956;29;20466;-79
2021/10/10 12:20:21;;;;;;;5.53;4.60;;;19.70;82.60;;;;;;4907583;29;21019;-80
2021/10/10 12:22:51;;;;;;;9.27;4.70;;;19.60;94.70;;;;;;4913152;29;20465;-79
2021/10/10 12:25:24;;;;;;;6.13;3.80;;;19.60;79.60;;;;;;4903736;29;20556;-78
2021/10/10 12:27:59;;;;;;;4.00;3.60;;;19.70;82.00;;;;;;4913695;29;20458;-76
2021/10/10 12:30:29;;;;;;;5.60;3.97;;;19.80;86.20;;;;;;4904938;29;20457;-80
2021/10/10 12:32:59;;;;;;;4.43;3.90;;;20.00;89.90;;;;;;4910996;29;20587;-78
2021/10/10 12:35:27;;;;;;;9.57;5.17;;;20.00;89.30;;;;;;4912972;29;20528;-78
2021/10/10 12:37:57;;;;;;;5.77;4.47;;;20.00;89.30;;;;;;4904950;29;20454;-79
2021/10/10 12:40:28;;;;;;;6.97;4.10;;;20.00;90.00;;;;;;4908655;29;20474;-79
2021/10/10 12:42:58;;;;;;;7.43;5.40;;;20.10;90.20;;;;;;4908156;29;20466;-77
2021/10/10 12:45:31;;;;;;;8.67;5.67;;;19.90;86.00;;;;;;4907857;29;20588;-79
2021/10/10 12:48:08;;;;;;;5.77;4.63;;;19.60;81.50;;;;;;4911613;29;20510;-78
2021/10/10 12:50:49;;;;;;;5.73;4.70;;;19.80;86.80;;;;;;4902137;29;20473;-78
2021/10/10 12:53:25;;;;;;;5.30;4.80;;;19.90;87.10;;;;;;4905698;29;20545;-78
2021/10/10 12:56:17;;;;;;;4.83;4.30;;;20.00;86.50;;;;;;4925333;29;20473;-78
2021/10/10 12:58:52;;;;;;;7.17;4.30;;;20.20;90.00;;;;;;4906811;29;20546;-77
2021/10/10 13:01:22;;;;;;;4.60;3.77;;;20.10;87.60;;;;;;4907012;29;20508;-79
2021/10/10 13:04:10;;;;;;;5.70;4.57;;;19.90;84.00;;;;;;4910466;29;21043;-77